createdAt,value
2022-10-25T00:04:30.256Z,14.03
2022-10-25T00:09:32.705Z,14.02
2022-10-25T00:14:35.367Z,13.98
2022-10-25T00:19:37.785Z,13.95
2022-10-25T00:24:42.598Z,13.92
2022-10-25T00:29:45.075Z,13.85
2022-10-25T00:34:47.525Z,13.77
2022-10-25T00:39:50.052Z,13.69
2022-10-25T00:45:12.898Z,13.62
2022-10-25T00:50:21.482Z,13.56
2022-10-25T00:55:26.229Z,13.50
2022-10-25T01:00:28.668Z,13.46
2022-10-25T01:05:31.139Z,13.44
2022-10-25T01:10:34.036Z,13.44
2022-10-25T01:15:43.880Z,13.44
2022-10-25T01:21:06.342Z,13.44
2022-10-25T01:26:18.625Z,13.46
2022-10-25T01:31:23.433Z,13.47
2022-10-25T01:36:27.861Z,13.47
2022-10-25T01:41:33.216Z,13.49
2022-10-25T01:46:44.304Z,13.50
2022-10-25T01:51:46.712Z,13.49
2022-10-25T01:56:52.042Z,13.48
2022-10-25T02:02:01.245Z,13.47
2022-10-25T02:07:08.063Z,13.47
2022-10-25T02:12:14.699Z,13.48
2022-10-25T02:17:19.886Z,13.51
2022-10-25T02:22:27.167Z,13.54
2022-10-25T02:27:30.832Z,13.55
2022-10-25T02:32:33.492Z,13.52
2022-10-25T02:37:35.955Z,13.45
2022-10-25T02:42:38.428Z,13.34
2022-10-25T02:47:40.851Z,13.23
2022-10-25T02:52:43.369Z,13.15
2022-10-25T02:57:45.933Z,13.08
2022-10-25T03:02:48.963Z,13.04
2022-10-25T03:07:51.676Z,13.00
2022-10-25T03:12:54.111Z,12.98
2022-10-25T03:17:56.516Z,12.98
2022-10-25T03:22:58.963Z,12.97
2022-10-25T03:28:01.378Z,12.93
2022-10-25T03:33:03.800Z,12.89
2022-10-25T03:38:06.398Z,12.86
2022-10-25T03:43:08.915Z,12.82
2022-10-25T03:48:11.453Z,12.81
2022-10-25T03:53:13.904Z,12.82
2022-10-25T03:58:16.869Z,12.83
2022-10-25T04:03:19.305Z,12.81
2022-10-25T04:08:21.747Z,12.79
2022-10-25T04:13:24.209Z,12.76
2022-10-25T04:18:26.728Z,12.76
2022-10-25T04:23:29.185Z,12.77
2022-10-25T04:28:31.690Z,12.75
2022-10-25T04:33:34.128Z,12.71
2022-10-25T04:38:36.708Z,12.64
2022-10-25T04:43:39.218Z,12.58
2022-10-25T04:48:42.142Z,12.50
2022-10-25T04:53:44.655Z,12.46
2022-10-25T04:58:47.134Z,12.44
2022-10-25T05:03:49.852Z,12.42
2022-10-25T05:08:52.753Z,12.41
2022-10-25T05:13:55.264Z,12.39
2022-10-25T05:18:58.128Z,12.36
2022-10-25T05:24:02.129Z,12.32
2022-10-25T05:29:09.360Z,12.29
2022-10-25T05:34:12.987Z,12.28
2022-10-25T05:39:15.538Z,12.33
2022-10-25T05:44:18.383Z,12.42
2022-10-25T05:49:20.793Z,12.57
2022-10-25T05:54:25.374Z,12.76
2022-10-25T05:59:27.943Z,13.04
2022-10-25T06:04:30.427Z,13.31
2022-10-25T06:09:32.906Z,13.53
2022-10-25T06:14:35.811Z,13.70
2022-10-25T06:19:38.581Z,13.77
2022-10-25T06:24:41.079Z,13.81
2022-10-25T06:29:43.535Z,13.88
2022-10-25T06:34:45.982Z,13.98
2022-10-25T06:39:48.413Z,14.06
2022-10-25T06:44:50.799Z,14.13
2022-10-25T06:49:53.244Z,14.15
2022-10-25T06:54:55.642Z,14.16
2022-10-25T06:59:58.119Z,14.17
2022-10-25T07:05:01.125Z,14.22
2022-10-25T07:10:04.193Z,14.28
2022-10-25T07:15:07.028Z,14.36
2022-10-25T07:20:09.841Z,14.45
2022-10-25T07:25:12.315Z,14.54
2022-10-25T07:30:14.808Z,14.64
2022-10-25T07:35:17.205Z,14.77
2022-10-25T07:40:19.628Z,14.82
2022-10-25T07:45:24.413Z,14.90
2022-10-25T07:50:28.917Z,14.98
2022-10-25T07:55:31.430Z,15.09
2022-10-25T08:00:35.216Z,15.11
2022-10-25T08:05:37.735Z,15.14
2022-10-25T08:10:41.895Z,15.21
2022-10-25T08:15:47.237Z,15.25
2022-10-25T08:21:01.736Z,15.30
2022-10-25T08:26:05.478Z,15.39
2022-10-25T08:31:08.403Z,15.55
2022-10-25T08:36:11.554Z,15.82
2022-10-25T08:41:17.431Z,16.00
2022-10-25T08:46:23.692Z,16.10
2022-10-25T08:51:29.575Z,16.23
2022-10-25T08:56:33.600Z,16.18
2022-10-25T09:01:40.755Z,16.08
2022-10-25T09:06:43.207Z,15.93
2022-10-25T09:11:48.657Z,15.79
2022-10-25T09:16:56.029Z,15.77
2022-10-25T09:21:58.411Z,15.75
2022-10-25T09:27:04.454Z,15.69
2022-10-25T09:32:15.941Z,15.62
2022-10-25T09:37:23.459Z,15.55
2022-10-25T09:42:30.578Z,15.52
2022-10-25T09:47:33.014Z,15.49
2022-10-25T09:52:44.134Z,15.45
2022-10-25T09:57:47.024Z,15.40
2022-10-25T10:02:49.771Z,15.35
2022-10-25T10:07:52.306Z,15.36
2022-10-25T10:13:01.906Z,15.40
2022-10-25T10:18:07.300Z,15.36
2022-10-25T10:23:13.894Z,15.38
2022-10-25T10:28:17.074Z,15.48
2022-10-25T10:33:19.839Z,15.51
2022-10-25T10:38:23.776Z,15.42
2022-10-25T10:43:30.305Z,15.26
2022-10-25T10:48:35.769Z,15.09
2022-10-25T10:53:40.341Z,15.01
2022-10-25T10:58:53.093Z,14.99
2022-10-25T11:04:00.159Z,15.06
2022-10-25T11:09:13.048Z,15.25
2022-10-25T11:14:47.973Z,15.53
2022-10-25T11:19:58.040Z,15.93
2022-10-25T11:25:00.515Z,16.39
2022-10-25T11:30:04.267Z,16.68
2022-10-25T11:35:08.199Z,16.80
2022-10-25T11:40:13.584Z,17.03
2022-10-25T11:45:18.936Z,17.57
2022-10-25T11:50:28.376Z,17.94
2022-10-25T11:55:33.751Z,18.10
2022-10-25T12:00:37.212Z,17.97
2022-10-25T12:05:42.561Z,17.90
2022-10-25T12:10:48.897Z,17.76
2022-10-25T12:15:54.039Z,17.67
2022-10-25T12:20:57.428Z,17.56
2022-10-25T12:26:05.447Z,17.39
2022-10-25T12:31:27.270Z,17.24
2022-10-25T12:36:29.640Z,17.03
2022-10-25T12:41:34.417Z,16.85
2022-10-25T12:46:37.804Z,16.58
2022-10-25T12:51:43.182Z,16.27
2022-10-25T12:57:05.844Z,16.20
2022-10-25T13:02:21.047Z,16.18
2022-10-25T13:07:24.118Z,16.15
2022-10-25T13:12:30.618Z,16.15
2022-10-25T13:17:36.010Z,16.31
2022-10-25T13:22:39.946Z,16.45
2022-10-25T13:27:45.933Z,16.57
2022-10-25T13:32:51.400Z,16.73
2022-10-25T13:37:54.710Z,16.90
2022-10-25T13:42:59.573Z,16.98
2022-10-25T13:48:09.433Z,16.93
2022-10-25T13:53:12.868Z,16.74
2022-10-25T13:58:18.236Z,16.61
2022-10-25T14:03:20.655Z,16.43
2022-10-25T14:08:23.048Z,16.26
2022-10-25T14:13:44.290Z,16.19
2022-10-25T14:18:46.985Z,16.32
2022-10-25T14:23:50.080Z,16.13
2022-10-25T14:28:52.557Z,15.99
2022-10-25T14:33:56.403Z,15.85
2022-10-25T14:39:02.566Z,15.58
2022-10-25T14:44:19.738Z,15.32
2022-10-25T14:49:23.072Z,15.11
2022-10-25T14:54:27.695Z,14.95
2022-10-25T14:59:40.245Z,14.73
2022-10-25T15:04:47.620Z,14.50
2022-10-25T15:09:54.325Z,14.34
2022-10-25T15:14:58.625Z,14.22
2022-10-25T15:20:03.979Z,14.14
2022-10-25T15:25:26.663Z,14.02
2022-10-25T15:30:32.331Z,13.86
2022-10-25T15:35:40.735Z,13.69
2022-10-25T15:40:44.176Z,13.58
2022-10-25T15:45:46.696Z,13.45
2022-10-25T15:50:51.600Z,13.34
2022-10-25T15:55:54.565Z,13.28
2022-10-25T16:00:57.114Z,13.23
2022-10-25T16:06:02.263Z,13.20
2022-10-25T16:11:04.854Z,13.14
2022-10-25T16:16:21.849Z,13.11
2022-10-25T16:21:29.858Z,13.07
2022-10-25T16:26:35.119Z,13.05
2022-10-25T16:31:37.532Z,13.04
2022-10-25T16:36:40.244Z,13.08
2022-10-25T16:41:43.952Z,13.14
2022-10-25T16:46:46.718Z,13.23
2022-10-25T16:51:49.849Z,13.28
2022-10-25T16:56:52.371Z,13.29
2022-10-25T17:01:55.545Z,13.28
2022-10-25T17:06:58.192Z,13.23
2022-10-25T17:12:00.655Z,13.20
2022-10-25T17:17:03.548Z,13.14
2022-10-25T17:22:05.955Z,13.09
2022-10-25T17:27:08.436Z,13.01
2022-10-25T17:32:10.919Z,12.94
2022-10-25T17:37:13.521Z,12.87
2022-10-25T17:42:15.943Z,12.80
2022-10-25T17:47:18.608Z,12.76
2022-10-25T17:52:21.091Z,12.74
2022-10-25T17:57:23.578Z,12.68
2022-10-25T18:02:26.258Z,12.65
2022-10-25T18:07:31.244Z,12.63
2022-10-25T18:12:36.670Z,12.64
2022-10-25T18:17:40.769Z,12.64
2022-10-25T18:22:43.490Z,12.61
2022-10-25T18:27:46.795Z,12.53
2022-10-25T18:32:49.734Z,12.46
2022-10-25T18:37:52.573Z,12.42
2022-10-25T18:42:55.065Z,12.40
2022-10-25T18:47:59.038Z,12.31
2022-10-25T18:53:01.573Z,12.20
2022-10-25T18:58:04.062Z,12.10
2022-10-25T19:03:07.454Z,12.03
2022-10-25T19:08:10.677Z,12.00
2022-10-25T19:13:18.984Z,11.93
2022-10-25T19:18:23.273Z,11.86
2022-10-25T19:23:25.723Z,11.81
2022-10-25T19:28:28.164Z,11.78
2022-10-25T19:33:30.692Z,11.82
2022-10-25T19:38:34.387Z,11.90
2022-10-25T19:43:36.917Z,11.99
2022-10-25T19:48:39.448Z,12.05
2022-10-25T19:53:42.402Z,12.09
2022-10-25T19:58:46.165Z,12.15
2022-10-25T20:03:49.658Z,12.22
2022-10-25T20:08:52.957Z,12.28
2022-10-25T20:13:56.596Z,12.31
2022-10-25T20:19:00.668Z,12.32
2022-10-25T20:24:06.457Z,12.38
2022-10-25T20:29:13.086Z,12.41
2022-10-25T20:34:17.299Z,12.43
2022-10-25T20:39:19.802Z,12.43
2022-10-25T20:44:22.351Z,12.41
2022-10-25T20:49:24.764Z,12.38
2022-10-25T20:54:27.218Z,12.34
2022-10-25T20:59:29.725Z,12.33
2022-10-25T21:09:55.098Z,12.40
2022-10-25T21:14:57.740Z,12.43
2022-10-25T21:20:00.542Z,12.49
2022-10-25T21:25:03.049Z,12.53
2022-10-25T21:30:06.149Z,12.51
2022-10-25T21:35:08.700Z,12.46
2022-10-25T21:40:11.286Z,12.45
2022-10-25T21:45:13.726Z,12.48
2022-10-25T21:50:17.260Z,12.53
2022-10-25T21:55:19.694Z,12.57
2022-10-25T22:00:22.303Z,12.54
2022-10-25T22:05:24.888Z,12.48
2022-10-25T22:10:27.381Z,12.46
2022-10-25T22:15:30.024Z,12.45
2022-10-25T22:20:32.495Z,12.44
2022-10-25T22:25:34.900Z,12.46
2022-10-25T22:30:37.594Z,12.43
2022-10-25T22:35:40.076Z,12.38
2022-10-25T22:40:42.480Z,12.34
2022-10-25T22:45:44.876Z,12.29
2022-10-25T22:50:51.094Z,12.27
2022-10-25T22:56:01.854Z,12.29
2022-10-25T23:01:05.892Z,12.32
2022-10-25T23:06:17.857Z,12.32
2022-10-25T23:11:21.657Z,12.27
2022-10-25T23:16:24.911Z,12.26
2022-10-25T23:21:30.191Z,12.25
2022-10-25T23:26:36.493Z,12.21
2022-10-25T23:31:39.192Z,12.17
2022-10-25T23:36:43.965Z,12.09
2022-10-25T23:41:46.497Z,11.97
2022-10-25T23:46:51.420Z,11.84
2022-10-25T23:51:54.016Z,11.77
2022-10-25T23:56:56.460Z,11.71
